METAR Data
IDs: Format: Raw Decoded Include TAF

Data at: 1830 UTC 21 Sep 2018

KFTW 211819Z 16009KT 10SM FEW019 SCT037 BKN055 24/24 A2993 RMK AO2 RAB1755E16 P0013 T02390239 $
KFTW 211812Z 15010G14KT 2 1/2SM R16/2200VP6000FT -RA BR SCT019 BKN045 OVC070 23/23 A2993 RMK AO2 RAB1755 P0013 T02280228 $
KFTW 211803Z 15008G25KT 1 1/2SM R16/2200VP6000FT +RA BR SCT019 BKN024 OVC044 22/22 A2993 RMK AO2 RAB1755 P0013 T02220222 $
KFTW 211753Z 15014KT 10SM BKN019 24/24 A2994 RMK AO2 SLP131 60000 T02440239 10244 20211 58004 $
KFTW 211653Z 17010KT 10SM BKN019 24/24 A2996 RMK AO2 SLP139 T02390239 $
KFTW 211553Z 16009KT 10SM OVC019 23/23 A2996 RMK AO2 SLP138 T02280228 $
KFTW 211453Z 16010KT 10SM BKN013 OVC090 22/22 A2995 RMK AO2 SLP135 60000 T02220222 53008 $
KFTW 211353Z 16012KT 10SM BKN011 22/22 A2994 RMK AO2 SLP131 T02220222 $
KFTW 211325Z 15006KT 10SM BKN011 BKN120 22/ A2993 RMK AO2 T0217 $
KFTW 211253Z 16008KT 10SM FEW011 BKN100 A2993 RMK AO2 RAB03E23 SLPNO P0000 $
KFTW 211220Z 17008KT 10SM -RA SCT011 BKN080 OVC110 21/21 A2993 RMK AO2 RAB03 P0000 T02110211 $
KFTW 211153Z 17009KT 10SM BKN011 22/22 A2993 RMK AO2 SLP126 70020 T02170217 10217 20206 53002 $
KFTW 211053Z 17008KT 10SM BKN013 OVC090 22/22 A2992 RMK AO2 SLP126 T02170217 $
KFTW 210953Z 17008KT 10SM OVC012 21/21 A2992 RMK AO2 SLP124 T02110211 $
KFTW 210853Z 16009KT 10SM OVC012 21/21 A2992 RMK AO2 SLP123 T02110211 58000 $
KFTW 210831Z 15009KT 10SM BKN013 BKN022 BKN085 21/21 A2992 RMK AO2 T02110211 $
KFTW 210753Z 15009KT 10SM SCT015 BKN055 OVC075 21/21 A2992 RMK AO2 SLP124 T02110211 $
KFTW 210750Z 16009KT 10SM BKN017 BKN055 OVC075 21/21 A2992 RMK AO2 $
KFTW 210653Z 16010KT 10SM BKN065 OVC080 21/21 A2992 RMK AO2 SLP124 T02060206 $
KFTW 210553Z 16011G17KT 10SM FEW050 OVC065 21/21 A2993 RMK AO2 SLP127 60000 T02060206 10217 20200 402890200 58006 $
KFTW 210453Z 17007KT 10SM SCT075 BKN120 20/20 A2994 RMK AO2 SLP132 T02000200 $
KFTW 210353Z AUTO 18007KT 10SM FEW120 20/20 A2995 RMK AO2 RAB23E30 SLP136 P0000 T02000200 $
KFTW 210253Z 17013G21KT 10SM FEW029 OVC100 22/21 A2995 RMK AO2 SLP134 60000 T02170211 53020 $
KFTW 210153Z 13008KT 10SM FEW110 22/22 A2993 RMK AO2 RAB41E52 SLP127 P0000 T02170217 $
KFTW 210053Z 10005KT 10SM SCT055 22/ A2991 RMK AO2 RAB00E09 SLP120 P0000 T0217 $
KFTW 202353Z 16004KT 10SM FEW120 21/21 A2989 RMK AO2 LTG DSNT E RAE50 TSE14 SLP115 P0002 60020 T02110211 10289 20200 53006 $
KFTW 202320Z 23005KT 10SM -RA FEW090 SCT110 21/ A2989 RMK AO2 LTG DSNT N-SE TSE14 P0001 T0206 $
KFTW 202253Z 22007KT 4SM -TSRA BR SCT040 SCT048 BKN075 21/21 A2989 RMK AO2 PK WND 19037/2210 WSHFT 2203 LTG DSNT SE AND S AND NW RAB30 TSB15 SLP116 P0017 T02060206 $
KFTW 202251Z 22007KT 3SM R16/6000VP6000FT -TSRA BR BKN043 BKN075 BKN120 20/20 A2989 RMK AO2 PK WND 19037/2210 WSHFT 2203 LTG DSNT SE AND S AND NW RAB30 TSB15 P0016 $
KFTW 202237Z 21014G28KT 1 3/4SM R16/3500VP6000FT +TSRA BR FEW026 BKN043 OVC050 21/21 A2990 RMK AO2 PK WND 19037/2210 WSHFT 2203 LTG DSNT W AND NW RAB30 TSB15 P0009 T02110211
KFTW 202217Z 21015G37KT 10SM TS BKN048 24/19 A2989 RMK AO2 PK WND 19037/2210 WSHFT 2203 LTG DSNT ALQDS TSB15 T02390194
KFTW 202153Z 14013KT 10SM CLR 28/20 A2986 RMK AO2 LTG DSNT S-W SLP104 T02780200
KFTW 202053Z 14013G20KT 10SM SCT039 BKN047 BKN060 28/22 A2987 RMK AO2 RAB11E28 SLP107 P0001 60001 T02830222 58024
KFTW 202042Z 13014G18KT 10SM SCT039 28/23 A2987 RMK AO2 LTG DSNT N RAB11E28 P0001 T02830228
KFTW 202025Z 16007G16KT 10SM VCTS -RA FEW027 BKN039 BKN049 28/23 A2988 RMK AO2 RAB11 P0001 T02780233
KFTW 201953Z 14013KT 10SM BKN039 BKN049 BKN070 27/22 A2990 RMK AO2 SLP115 T02720222
KFTW 201853Z 14011G18KT 10SM CLR 28/22 A2992 RMK AO2 SLP123 T02830217
KFTW 201753Z 19013G18KT 10SM FEW036 28/22 A2994 RMK AO2 SLP130 T02830222 10283 20200 58005
KFTW 201653Z 16013KT 10SM FEW034 27/22 A2997 RMK AO2 SLP140 T02670217
KFTW 201553Z 14008KT 10SM CLR 25/22 A2997 RMK AO2 SLP141 T02500217
KFTW 201453Z 16006KT 10SM CLR 23/22 A2996 RMK AO2 SLP136 T02330217 51014
KFTW 201353Z 16005KT 10SM CLR 22/22 A2994 RMK AO2 SLP132 T02220217
KFTW 201253Z 17005KT 10SM CLR 21/21 A2993 RMK AO2 SLP128 T02110211
KFTW 201153Z 17003KT 10SM CLR 20/20 A2992 RMK AO2 SLP122 T02000200 10233 20200 53001
KFTW 201053Z 16005KT 10SM CLR 21/21 A2992 RMK AO2 SLP122 T02060206
KFTW 200953Z 19009KT 10SM CLR 22/21 A2991 RMK AO2 SLP119 T02220206
KFTW 200853Z 19006KT 10SM CLR 21/21 A2991 RMK AO2 SLP120 T02110206 56007
KFTW 200753Z 17005KT 10SM CLR 22/21 A2992 RMK AO2 SLP121 T02170206
KFTW 200653Z 19006KT 10SM CLR 23/21 A2993 RMK AO2 SLP124 T02280206